Airfield :
LOGIN :

Register | Disclaimer

   EN    FR    IT 

 










Legend :    VFR   Marginal VFR   IFR   Intensive IFR   Very Intensive IFR
Visi :
Ceiling :
>= 8 km
>= 3000ft
5 to 8 km
1000 to 3000 ft
1500m to 5 km
500 to 1000 ft
800 to 1500m
200 to 500 ft
< 800m
< 200 ft
Symbols :   Thunderstorms  Fog  Heavy snow  Heavy precipitations  Wind > 20 kt
SIGMETs :     Misc.  Thunderstorms  Icing  Turbulence  Mountain Waves  Volcanic Ashes






- Airport Elevation : 17 ft
- IATA code : MPL


LFMT - Montpellier Méditerranée

CURRENT METAR :
  • 211800Z AUTO 11003KT 9999 BKN012 BKN120 OVC160 11/09 Q1007 NOSIG

EXPIRED METARs :
  • 211730Z AUTO 13006KT 9999 BKN015 BKN130 BKN150 12/10 Q1006 TEMPO BKN012
  • 211700Z AUTO 15007KT 9999 FEW016 BKN021 OVC180 12/10 Q1006 TEMPO BKN012
  • 211630Z AUTO 13010KT 9999 FEW014 BKN020 OVC200 12/10 Q1006 TEMPO BKN012
  • 211600Z AUTO 13009KT 9999 SCT014 BKN019 12/10 Q1006 TEMPO BKN012

TAF TAF LFMT
Valid from the 21 at 15:00 until the 22 at 15:00 UTC


211400Z 2115/2215 12007KT 9999 BKN020
PROB40
TEMPO 2115/2120 BKN012
TEMPO 2120/2208 2000 BR OVC005
TEMPO 2208/2212 4000 RA BKN010 FEW030CB
BECMG 2212/2214 28015G25KT CAVOK
ATIS : +33 4 67 13 11 70



MET'MAP, your aeronautical weather chart ! - Copyright ORBIFLY December 2007 - Disclaimer

ORBIFLY MET'MAP TEAM :

Programming & Development : Alexandra Zaïnal
Concept & original design : Baudouin d'Aumeries
Assistance for programming : Marc-Olivier Méhu
Technical & hardware support : Manuel Goepfert

Contact : metmap@orbifly.com




SOURCES & CREDITS :

   NOAA